South Lake Tahoe, CA

7:40 PM PDT on August 28, 2016 (GMT -0700)
North Upper Truckee Burn | | Change Station

Elev 6476 ft 38.88 °N, 120.04 °W | Updated 3 seconds ago

Clear
Clear
66.7 °F
Feels Like 66.7 °F
N
0.2
Wind Variable Wind from West
Gusts 2.5 mph

Today
High -- | Low -- °F
--% Chance of Precip.
Yesterday
High -- | Low -- °F
Precip. -- in
Pressure 30.18 in
Visibility 10.0 miles
Clouds Clear
Dew Point 29 °F
Humidity 24%
Rainfall 0.00 in
Snow Depth Not available.
6:26 AM 7:35 PM
Waning Crescent, 11% visible
METAR KTVL 290153Z AUTO 21004KT 10SM CLR 22/M01 A3031 RMK AO2 SLP220 T02171006
Pressure 30.18 in
Visibility 10.0 miles
Clouds Clear
Dew Point 29 °F
Humidity 24%
Rainfall 0.00 in
Snow Depth Not available.
6:26 AM 7:35 PM
Waning Crescent, 11% visible
METAR KTVL 290153Z AUTO 21004KT 10SM CLR 22/M01 A3031 RMK AO2 SLP220 T02171006

10-Day Weather Forecast

Almanac

Astronomy

Aug. 28, 2016 Rise Set
Actual Time
Civil Twilight
Nautical Twilight
Astronomical Twilight
Moon
Length of Visible Light
Length of Day
Tomorrow will be .
, % of the Moon is Illuminated

Today's Extremes

State Highs State Lows

Community

WunderPhotos

Upload Photos

1,935,772 photos uploaded!

WunderBlog® & News

Nearby

Air Quality

  Air Quality AQ Index Pollutant
Not available.

Snow Depth

Station Depth Elevation

Earthquake Activity

City Distance Mag. Time & Date
Minimum magnitude displayed is 2.5.

Coastal Water Temperatures

Place Temperature

Stations

Nearby Weather Stations

Station Location Temp. Windchill Dew Point Humidity Wind Precip. Elev Updated Type
                   

Watches & Warnings

There are currently no watches in effect.